Russellville, AR (72801)

3:04 PM CST on February 14, 2016 (GMT -0600)
Amateur Radio Station WB5JJJ | | Change Station
CLOSE
Current Station
Personal Weather Station
Location: Russellville, AR
Elevation: 377 ft
Nearby Weather Stations

Elev 377 ft 35.28 °N, 93.15 °W | Updated 9 seconds ago

Overcast
Overcast
36.0 °F
Feels Like 33 °F
N
4.0
Wind Variable Wind from NE
Gusts 5.0 mph

Today
High -- | Low -- °F
--% Chance of Precip.
Yesterday
High -- | Low -- °F
Precip. -- in
Pressure 29.96 in
Visibility 10.0 miles
Clouds Overcast 1600 ft
Windchill 33 °F
Dew Point 28 °F
Humidity 73%
Rainfall 0.00 in
Snow Depth Not available.
7:00 AM 5:53 PM
Waxing Crescent, 45% visible
METAR KRUE 142053Z AUTO 06003KT 10SM OVC016 03/M02 A2996 RMK AO2 SLP144 T00281022 56027
Pressure 29.96 in
Visibility 10.0 miles
Clouds Overcast 1600 ft
Windchill 33 °F
Dew Point 28 °F
Humidity 73%
Rainfall 0.00 in
Snow Depth Not available.
7:00 AM 5:53 PM
Waxing Crescent, 45% visible
METAR KRUE 142053Z AUTO 06003KT 10SM OVC016 03/M02 A2996 RMK AO2 SLP144 T00281022 56027

10-Day Weather Forecast

Almanac

Astronomy

Feb. 14, 2016 Rise Set
Actual Time
Civil Twilight
Nautical Twilight
Astronomical Twilight
Moon
Length of Visible Light
Length of Day
Tomorrow will be .
, % of the Moon is Illuminated

Today's Extremes

State Highs State Lows

Community

WunderPhotos

Upload Photos

1,892,885 photos uploaded!

WunderBlog® & News

Nearby

Air Quality

  Air Quality AQ Index Pollutant
Not available.

Snow Depth

Station Depth Elevation

Earthquake Activity

City Distance Mag. Time & Date
Minimum magnitude displayed is 2.5.

Coastal Water Temperatures

Place Temperature

Stations

Nearby Weather Stations

Station Location Temp. Windchill Dew Point Humidity Wind Precip. Elev Updated Type
                   

Watches & Warnings

There are currently no watches in effect.